Hauptseite
METAR-TAF:

METAR-TAF

Flughäfen :

Flughafen Turin

Turin, Italien

Breite: 45-13N, Länge: 007-39E, Höhe: 301 m

Beobachtung

Neuester Wetterbericht von vor 37 Minuten, um 03:50 UTC
Wind 3 kt aus Nordwest
Temperatur 15°C
Luftfeuchtigkeit 82%
Luftdruck 1020 hPa
Sichtweite: 8000 m
Aufgelockert bewölkt in der Höhe von 2000 ft
Aufgelockert bewölkt in der Höhe von 6000 ft

METAR: LIMF 160350Z 31003KT 8000 SCT020 SCT060 15/12 Q1020

Zeit: 06:27 (04:27 UTC)

Prognose

Neuester Wetterbericht von vor 5 Stunden und 27 Minuten, um 23:00 UTC
Gültige Prognose vom 16 um 00 UTC bis 16 um 24 UTC
Wind 5 kt aus unterschiedlichen Richtungen
Sichtweite: 8000 m
Aufgelockert bewölkt in der Höhe von 6000 ft

TAF: LIMF 152300Z 1600/1624 VRB05KT 8000 SCT060

Wetterbeobachtungen und Prognosen von mehr als 4000 Flughäfen (METAR und TAF Bericht).

Die verfügbaren Stationen werden durch gelbe und rote Markierungen auf der Karte dargestellt.

Führen Sie die Maus auf sie, um den Namen der Station zu sehen.

Darauf klicken, um die Beobachtung von Wetterbeobachtungen und Prognosen zu sehen.

Um die Karte zu ändern : klicken Sie auf den grünen Tasten mit einem schwarzen Kreuz Zum Vergrößern, auf den grünen Button mit einem Gedankenstrich zu verkleinern, oder auf die grünen Pfeile für benachbarte Karten.


METAR-TAF: